createdAt,value
2023-01-06T00:00:29.621Z,100893.47
2023-01-06T00:01:34.802Z,100904.34
2023-01-06T00:02:37.952Z,100905.06
2023-01-06T00:03:41.224Z,100911.25
2023-01-06T00:04:44.391Z,100905.31
2023-01-06T00:05:47.619Z,100909.72
2023-01-06T00:06:50.714Z,100911.63
2023-01-06T00:07:53.921Z,100908.34
2023-01-06T00:09:02.916Z,100909.47
2023-01-06T00:10:07.752Z,100903.50
2023-01-06T00:11:14.217Z,100910.63
2023-01-06T00:12:17.327Z,100911.44
2023-01-06T00:13:20.516Z,100915.34
2023-01-06T00:14:23.712Z,100909.59
2023-01-06T00:15:27.075Z,100917.25
2023-01-06T00:16:30.339Z,100925.31
2023-01-06T00:17:33.936Z,100916.69
2023-01-06T00:18:37.512Z,100918.94
2023-01-06T00:19:40.765Z,100921.38
2023-01-06T00:20:44.011Z,100921.50
2023-01-06T00:21:47.174Z,100931.53
2023-01-06T00:22:50.315Z,100920.25
2023-01-06T00:23:53.653Z,100927.75
2023-01-06T00:24:56.833Z,100930.13
2023-01-06T00:25:59.909Z,100931.06
2023-01-06T00:27:03.147Z,100936.94
2023-01-06T00:28:07.309Z,100942.47
2023-01-06T00:29:11.266Z,100942.19
2023-01-06T00:30:14.523Z,100941.34
2023-01-06T00:31:17.777Z,100944.91
2023-01-06T00:32:20.878Z,100953.28
2023-01-06T00:33:24.847Z,100946.16
2023-01-06T00:34:29.417Z,100951.22
2023-01-06T00:35:32.640Z,100953.09
2023-01-06T00:36:38.353Z,100946.56
2023-01-06T00:37:41.457Z,100943.84
2023-01-06T00:38:44.583Z,100948.69
2023-01-06T00:39:48.236Z,100942.06
2023-01-06T00:40:51.357Z,100954.66
2023-01-06T00:42:03.523Z,100953.66
2023-01-06T00:43:06.900Z,100959.81
2023-01-06T00:44:10.300Z,100961.84
2023-01-06T00:45:13.481Z,100976.31
2023-01-06T00:46:16.942Z,100971.94
2023-01-06T00:47:20.751Z,100981.88
2023-01-06T00:48:23.824Z,100979.31
2023-01-06T00:49:27.427Z,100970.81
2023-01-06T00:50:30.655Z,100966.88
2023-01-06T00:51:36.600Z,100980.28
2023-01-06T00:52:39.820Z,100980.34
2023-01-06T00:53:43.052Z,100975.75
2023-01-06T00:54:46.348Z,100975.91
2023-01-06T00:55:50.864Z,100979.66
2023-01-06T00:56:55.088Z,100978.75
2023-01-06T00:57:58.243Z,100981.25
2023-01-06T00:59:03.285Z,100976.94
2023-01-06T01:00:09.167Z,100973.16
2023-01-06T01:01:12.740Z,100973.16
2023-01-06T01:02:16.018Z,100974.06
2023-01-06T01:03:20.460Z,100977.13
2023-01-06T01:04:24.942Z,100978.44
2023-01-06T01:05:28.086Z,100983.97
2023-01-06T01:06:31.302Z,100982.47
2023-01-06T01:07:34.560Z,100995.03
2023-01-06T01:08:38.331Z,100991.31
2023-01-06T01:09:41.654Z,100990.25
2023-01-06T01:10:44.750Z,101000.00
2023-01-06T01:12:06.820Z,101005.59
2023-01-06T01:13:10.811Z,101014.53
2023-01-06T01:14:16.537Z,101025.28
2023-01-06T01:15:19.703Z,101024.03
2023-01-06T01:16:22.908Z,101028.63
2023-01-06T01:17:31.747Z,101029.75
2023-01-06T01:18:36.013Z,101028.78
2023-01-06T01:19:39.930Z,101021.09
2023-01-06T01:20:47.566Z,101026.28
2023-01-06T01:21:51.050Z,101027.56
2023-01-06T01:22:54.167Z,101037.19
2023-01-06T01:23:57.329Z,101035.69
2023-01-06T01:25:00.499Z,101040.16
2023-01-06T01:26:05.155Z,101044.97
2023-01-06T01:27:09.029Z,101044.66
2023-01-06T01:28:12.177Z,101043.03
2023-01-06T01:29:17.490Z,101039.97
2023-01-06T01:30:23.505Z,101046.50
2023-01-06T01:31:27.020Z,101052.44
2023-01-06T01:32:30.257Z,101056.91
2023-01-06T01:33:33.958Z,101058.59
2023-01-06T01:34:37.337Z,101064.41
2023-01-06T01:35:40.682Z,101071.13
2023-01-06T01:36:47.029Z,101062.16
2023-01-06T01:37:50.275Z,101066.22
2023-01-06T01:38:55.430Z,101057.47
2023-01-06T01:39:58.525Z,101062.56
2023-01-06T01:41:02.188Z,101063.78
2023-01-06T01:42:07.262Z,101067.78
2023-01-06T01:43:12.123Z,101071.81
2023-01-06T01:45:02.528Z,101074.63
2023-01-06T01:46:06.333Z,101086.38
2023-01-06T01:47:11.909Z,101081.03
2023-01-06T01:48:35.943Z,101090.59
2023-01-06T01:49:43.269Z,101081.31
2023-01-06T01:50:53.913Z,101088.56
2023-01-06T01:51:58.145Z,101083.78
2023-01-06T01:53:18.391Z,101075.00
2023-01-06T01:54:27.329Z,101073.09
2023-01-06T01:55:32.571Z,101076.41
2023-01-06T01:56:42.948Z,101088.44
2023-01-06T01:58:03.097Z,101095.13
2023-01-06T01:59:21.553Z,101105.69
2023-01-06T02:00:24.682Z,101110.59
2023-01-06T02:01:29.401Z,101103.91
2023-01-06T02:02:33.508Z,101109.53
2023-01-06T02:03:38.530Z,101103.81
2023-01-06T02:04:45.976Z,101109.78
2023-01-06T02:05:54.955Z,101119.88
2023-01-06T02:06:59.042Z,101120.47
2023-01-06T02:08:14.929Z,101127.06
2023-01-06T02:09:53.504Z,101121.56
2023-01-06T02:10:56.669Z,101118.16
2023-01-06T02:12:01.441Z,101127.03
2023-01-06T02:13:04.867Z,101120.69
2023-01-06T02:14:19.898Z,101130.00
2023-01-06T02:15:32.007Z,101134.31
2023-01-06T02:16:58.972Z,101135.03
2023-01-06T02:18:37.142Z,101142.44
2023-01-06T02:20:07.281Z,101141.44
2023-01-06T02:21:32.027Z,101142.91
2023-01-06T02:22:59.006Z,101144.63
2023-01-06T02:24:51.364Z,101155.09
2023-01-06T02:26:15.587Z,101147.31
2023-01-06T02:28:05.765Z,101151.53
2023-01-06T02:29:36.381Z,101155.72
2023-01-06T02:31:11.111Z,101157.97
2023-01-06T02:32:22.768Z,101159.66
2023-01-06T02:33:41.618Z,101153.78
2023-01-06T02:35:48.326Z,101159.88
2023-01-06T02:37:20.692Z,101163.34
2023-01-06T02:38:41.984Z,101167.66
2023-01-06T02:40:12.035Z,101170.78
2023-01-06T02:41:27.923Z,101169.25
2023-01-06T02:42:33.895Z,101173.47
2023-01-06T02:44:03.606Z,101163.19
2023-01-06T02:46:12.533Z,101168.88
2023-01-06T02:48:00.656Z,101183.63
2023-01-06T02:49:41.697Z,101176.56
2023-01-06T02:51:05.848Z,101194.38
2023-01-06T02:52:19.023Z,101194.88
2023-01-06T02:54:06.797Z,101188.38
2023-01-06T02:55:36.897Z,101190.78
2023-01-06T02:56:47.243Z,101199.56
2023-01-06T02:58:36.546Z,101196.97
2023-01-06T03:00:07.615Z,101198.59
2023-01-06T03:01:24.007Z,101194.47
2023-01-06T03:02:31.147Z,101200.94
2023-01-06T03:03:38.393Z,101190.63
2023-01-06T03:04:45.822Z,101193.22
2023-01-06T03:05:56.293Z,101192.28
2023-01-06T03:07:03.939Z,101205.84
2023-01-06T03:08:14.862Z,101200.13
2023-01-06T03:09:27.387Z,101199.09
2023-01-06T03:10:32.031Z,101207.88
2023-01-06T03:11:36.251Z,101206.44
2023-01-06T03:12:46.270Z,101198.66
2023-01-06T03:14:10.379Z,101212.28
2023-01-06T03:15:14.380Z,101204.78
2023-01-06T03:16:18.009Z,101205.47
2023-01-06T03:17:21.347Z,101212.28
2023-01-06T03:18:24.755Z,101211.47
2023-01-06T03:19:28.486Z,101211.81
2023-01-06T03:20:31.877Z,101212.13
2023-01-06T03:21:40.808Z,101215.88
2023-01-06T03:22:44.215Z,101217.31
2023-01-06T03:23:47.837Z,101215.53
2023-01-06T03:24:52.045Z,101212.28
2023-01-06T03:25:57.833Z,101217.81
2023-01-06T03:27:04.851Z,101218.47
2023-01-06T03:28:08.641Z,101215.88
2023-01-06T03:29:16.432Z,101222.38
2023-01-06T03:30:20.257Z,101222.69
2023-01-06T03:32:09.232Z,101224.13
2023-01-06T03:33:38.399Z,101221.06
2023-01-06T03:35:21.792Z,101229.66
2023-01-06T03:36:55.058Z,101228.72
2023-01-06T03:38:20.850Z,101231.13
2023-01-06T03:39:47.939Z,101247.97
2023-01-06T03:41:05.886Z,101240.88
2023-01-06T03:43:00.337Z,101232.78
2023-01-06T03:44:11.806Z,101238.78
2023-01-06T03:45:45.175Z,101237.72
2023-01-06T03:46:57.705Z,101238.75
2023-01-06T03:48:17.009Z,101243.59
2023-01-06T03:49:31.229Z,101245.38
2023-01-06T03:50:40.966Z,101237.59
2023-01-06T03:51:49.612Z,101241.69
2023-01-06T03:53:47.062Z,101240.28
2023-01-06T03:55:05.750Z,101249.56
2023-01-06T03:56:26.264Z,101243.94
2023-01-06T03:57:37.129Z,101249.78
2023-01-06T03:58:48.066Z,101249.81
2023-01-06T04:00:00.637Z,101252.88
2023-01-06T04:01:06.087Z,101251.75
2023-01-06T04:02:10.052Z,101252.09
2023-01-06T04:03:15.057Z,101257.44
2023-01-06T04:04:20.592Z,101252.91
2023-01-06T04:05:27.880Z,101256.16
2023-01-06T04:06:32.462Z,101262.66
2023-01-06T04:07:40.440Z,101256.81
2023-01-06T04:08:44.732Z,101261.97
2023-01-06T04:09:48.774Z,101262.81
2023-01-06T04:10:52.150Z,101264.13
2023-01-06T04:12:14.069Z,101263.03
2023-01-06T04:13:17.359Z,101260.53
2023-01-06T04:14:21.031Z,101264.00
2023-01-06T04:15:29.440Z,101265.88
2023-01-06T04:16:34.392Z,101267.38
2023-01-06T04:17:39.518Z,101265.88
2023-01-06T04:18:42.876Z,101269.16
2023-01-06T04:19:46.167Z,101266.88
2023-01-06T04:20:49.681Z,101266.22
2023-01-06T04:21:57.675Z,101274.19
2023-01-06T04:23:03.982Z,101274.34
2023-01-06T04:24:12.006Z,101268.81
2023-01-06T04:25:15.156Z,101279.31
2023-01-06T04:26:18.365Z,101271.25
2023-01-06T04:27:25.530Z,101271.81
2023-01-06T04:28:28.649Z,101265.88
2023-01-06T04:29:31.796Z,101273.94
2023-01-06T04:30:35.339Z,101270.44
2023-01-06T04:31:39.026Z,101276.44
2023-01-06T04:32:42.495Z,101271.44
2023-01-06T04:33:46.083Z,101283.22
2023-01-06T04:34:50.100Z,101277.91
2023-01-06T04:35:54.123Z,101281.50
2023-01-06T04:36:58.649Z,101279.22
2023-01-06T04:38:03.469Z,101273.53
2023-01-06T04:39:06.787Z,101276.28
2023-01-06T04:40:10.738Z,101288.22
2023-01-06T04:41:13.921Z,101291.16
2023-01-06T04:42:17.202Z,101286.94
2023-01-06T04:43:20.328Z,101287.75
2023-01-06T04:44:23.510Z,101280.44
2023-01-06T04:45:26.656Z,101290.06
2023-01-06T04:46:29.929Z,101288.47
2023-01-06T04:47:33.798Z,101294.63
2023-01-06T04:48:37.157Z,101289.66
2023-01-06T04:49:40.422Z,101293.34
2023-01-06T04:50:43.549Z,101289.34
2023-01-06T04:51:46.801Z,101291.47
2023-01-06T04:52:49.991Z,101293.00
2023-01-06T04:53:53.139Z,101289.31
2023-01-06T04:54:56.217Z,101300.25
2023-01-06T04:56:07.267Z,101292.34
2023-01-06T04:57:10.430Z,101303.16
2023-01-06T04:58:13.649Z,101296.34
2023-01-06T04:59:16.867Z,101305.66
2023-01-06T05:00:20.713Z,101303.06
2023-01-06T05:01:25.969Z,101303.72
2023-01-06T05:02:29.397Z,101305.38
2023-01-06T05:03:32.548Z,101298.03
2023-01-06T05:04:46.989Z,101301.44
2023-01-06T05:05:50.704Z,101296.09
2023-01-06T05:06:53.779Z,101289.03
2023-01-06T05:07:57.003Z,101288.63
2023-01-06T05:09:00.281Z,101294.88
2023-01-06T05:10:05.062Z,101292.63
2023-01-06T05:11:21.999Z,101298.84
2023-01-06T05:12:25.089Z,101295.84
2023-01-06T05:13:31.148Z,101302.94
2023-01-06T05:14:34.786Z,101294.41
2023-01-06T05:15:39.852Z,101291.63
2023-01-06T05:16:43.132Z,101290.75
2023-01-06T05:17:46.269Z,101293.16
2023-01-06T05:18:49.388Z,101289.13
2023-01-06T05:19:52.528Z,101299.78
2023-01-06T05:20:55.868Z,101299.03
2023-01-06T05:21:59.269Z,101293.16
2023-01-06T05:23:02.362Z,101299.53
2023-01-06T05:24:05.847Z,101295.13
2023-01-06T05:25:09.338Z,101299.16
2023-01-06T05:26:20.780Z,101299.06
2023-01-06T05:27:23.844Z,101300.78
2023-01-06T05:28:28.514Z,101302.47
2023-01-06T05:29:31.871Z,101297.41
2023-01-06T05:30:34.952Z,101296.59
2023-01-06T05:31:38.075Z,101283.66
2023-01-06T05:32:41.311Z,101288.28
2023-01-06T05:33:44.651Z,101278.50
2023-01-06T05:34:47.718Z,101278.41
2023-01-06T05:35:59.238Z,101283.09
2023-01-06T05:37:02.408Z,101279.88
2023-01-06T05:38:06.145Z,101276.78
2023-01-06T05:39:09.332Z,101291.88
2023-01-06T05:40:12.510Z,101292.84
2023-01-06T05:41:15.719Z,101295.50
2023-01-06T05:42:18.759Z,101301.13
2023-01-06T05:43:21.973Z,101295.88
2023-01-06T05:44:25.069Z,101300.06
2023-01-06T05:45:28.281Z,101304.72
2023-01-06T05:46:31.456Z,101319.00
2023-01-06T05:47:34.577Z,101317.31
2023-01-06T05:48:38.826Z,101322.09
2023-01-06T05:49:41.927Z,101315.78
2023-01-06T05:50:45.161Z,101320.63
2023-01-06T05:51:48.987Z,101326.03
2023-01-06T05:52:52.130Z,101324.13
2023-01-06T05:53:55.432Z,101327.44
2023-01-06T05:54:58.655Z,101333.22
2023-01-06T05:56:15.173Z,101325.31
2023-01-06T05:57:18.253Z,101335.72
2023-01-06T05:58:21.852Z,101338.50
2023-01-06T05:59:25.023Z,101341.34
2023-01-06T06:00:28.377Z,101342.31
2023-01-06T06:01:32.928Z,101336.75
2023-01-06T06:02:36.130Z,101334.44
2023-01-06T06:03:39.319Z,101336.56
2023-01-06T06:04:42.723Z,101336.72
2023-01-06T06:05:45.911Z,101340.31
2023-01-06T06:06:49.090Z,101343.38
2023-01-06T06:07:56.354Z,101342.56
2023-01-06T06:08:59.540Z,101350.69
2023-01-06T06:10:02.892Z,101345.66
2023-01-06T06:11:09.647Z,101348.53
2023-01-06T06:12:13.621Z,101343.16
2023-01-06T06:13:16.741Z,101343.06
2023-01-06T06:14:19.889Z,101341.75
2023-01-06T06:15:22.986Z,101341.59
2023-01-06T06:16:28.547Z,101338.34
2023-01-06T06:17:32.072Z,101338.25
2023-01-06T06:18:42.853Z,101341.13
2023-01-06T06:19:45.980Z,101342.44
2023-01-06T06:20:49.405Z,101345.50
2023-01-06T06:21:53.440Z,101350.38
2023-01-06T06:22:56.621Z,101357.75
2023-01-06T06:24:00.232Z,101356.06
2023-01-06T06:25:03.492Z,101347.69
2023-01-06T06:26:07.430Z,101350.03
2023-01-06T06:27:10.595Z,101349.69
2023-01-06T06:28:13.666Z,101353.81
2023-01-06T06:29:16.754Z,101357.44
2023-01-06T06:30:19.988Z,101359.06
2023-01-06T06:31:29.101Z,101369.22
2023-01-06T06:32:32.376Z,101365.59
2023-01-06T06:33:36.024Z,101366.50
2023-01-06T06:34:39.086Z,101366.41
2023-01-06T06:35:42.381Z,101371.00
2023-01-06T06:36:45.541Z,101372.97
2023-01-06T06:37:48.627Z,101373.88
2023-01-06T06:38:53.805Z,101381.75
2023-01-06T06:39:56.956Z,101376.31
2023-01-06T06:41:00.155Z,101375.44
2023-01-06T06:42:03.409Z,101373.66
2023-01-06T06:43:06.644Z,101369.50
2023-01-06T06:44:09.724Z,101381.22
2023-01-06T06:45:12.827Z,101384.84
2023-01-06T06:46:16.437Z,101383.06
2023-01-06T06:47:19.763Z,101382.91
2023-01-06T06:48:22.915Z,101387.38
2023-01-06T06:49:26.033Z,101382.03
2023-01-06T06:50:29.105Z,101382.09
2023-01-06T06:51:32.433Z,101385.50
2023-01-06T06:52:35.548Z,101382.09
2023-01-06T06:53:39.666Z,101378.91
2023-01-06T06:54:42.771Z,101381.28
2023-01-06T06:55:45.813Z,101384.22
2023-01-06T06:56:48.913Z,101384.88
2023-01-06T06:57:52.145Z,101385.69
2023-01-06T06:58:55.434Z,101389.72
2023-01-06T06:59:58.557Z,101395.09
2023-01-06T07:01:10.910Z,101396.38
2023-01-06T07:02:14.150Z,101408.56
2023-01-06T07:03:18.005Z,101401.59
2023-01-06T07:04:21.146Z,101404.25
2023-01-06T07:05:25.753Z,101414.47
2023-01-06T07:06:29.076Z,101415.88
2023-01-06T07:07:32.243Z,101417.81
2023-01-06T07:08:36.054Z,101421.09
2023-01-06T07:09:39.353Z,101418.47
2023-01-06T07:10:42.645Z,101417.81
2023-01-06T07:11:45.759Z,101418.47
2023-01-06T07:12:48.964Z,101416.69
2023-01-06T07:13:52.178Z,101419.50
2023-01-06T07:14:55.319Z,101421.06
2023-01-06T07:15:58.682Z,101421.59
2023-01-06T07:17:02.379Z,101417.66
2023-01-06T07:18:06.356Z,101418.25
2023-01-06T07:19:10.501Z,101414.19
2023-01-06T07:20:13.632Z,101415.25
2023-01-06T07:21:16.742Z,101412.38
2023-01-06T07:22:19.978Z,101418.66
2023-01-06T07:23:24.356Z,101413.88
2023-01-06T07:24:27.549Z,101417.63
2023-01-06T07:25:31.372Z,101414.19
2023-01-06T07:26:34.467Z,101422.13
2023-01-06T07:27:37.792Z,101411.44
2023-01-06T07:28:40.915Z,101420.56
2023-01-06T07:29:44.185Z,101414.09
2023-01-06T07:30:47.582Z,101411.50
2023-01-06T07:31:51.075Z,101403.50
2023-01-06T07:32:54.223Z,101402.56
2023-01-06T07:33:57.351Z,101402.03
2023-01-06T07:35:00.600Z,101400.69
2023-01-06T07:36:04.071Z,101403.75
2023-01-06T07:37:07.374Z,101406.91
2023-01-06T07:38:11.048Z,101404.53
2023-01-06T07:39:14.152Z,101404.84
2023-01-06T07:40:18.513Z,101412.25
2023-01-06T07:41:21.644Z,101408.75
2023-01-06T07:42:25.040Z,101414.22
2023-01-06T07:43:28.413Z,101411.81
2023-01-06T07:44:31.616Z,101408.13
2023-01-06T07:45:35.724Z,101415.34
2023-01-06T07:46:38.868Z,101408.38
2023-01-06T07:47:42.004Z,101413.03
2023-01-06T07:48:45.113Z,101414.22
2023-01-06T07:49:48.178Z,101410.38
2023-01-06T07:50:51.557Z,101418.34
2023-01-06T07:51:54.836Z,101415.31
2023-01-06T07:52:59.856Z,101419.50
2023-01-06T07:54:02.956Z,101420.78
2023-01-06T07:55:07.012Z,101421.59
2023-01-06T07:56:10.064Z,101420.63
2023-01-06T07:57:13.327Z,101416.72
2023-01-06T07:58:16.532Z,101425.13
2023-01-06T07:59:19.729Z,101418.59
2023-01-06T08:00:23.195Z,101420.72
2023-01-06T08:01:26.469Z,101418.28
2023-01-06T08:02:29.790Z,101419.91
2023-01-06T08:03:33.034Z,101426.00
2023-01-06T08:04:36.103Z,101427.19
2023-01-06T08:05:43.686Z,101426.81
2023-01-06T08:06:46.806Z,101429.00
2023-01-06T08:07:49.915Z,101427.19
2023-01-06T08:08:53.246Z,101427.47
2023-01-06T08:09:56.372Z,101422.97
2023-01-06T08:10:59.504Z,101423.16
2023-01-06T08:12:02.636Z,101427.06
2023-01-06T08:13:05.846Z,101427.31
2023-01-06T08:14:08.984Z,101423.53
2023-01-06T08:15:12.372Z,101427.97
2023-01-06T08:16:16.066Z,101423.66
2023-01-06T08:17:19.201Z,101430.94
2023-01-06T08:18:22.359Z,101425.78
2023-01-06T08:19:25.469Z,101431.97
2023-01-06T08:20:28.722Z,101432.94
2023-01-06T08:21:32.089Z,101428.56
2023-01-06T08:22:35.590Z,101421.28
2023-01-06T08:23:39.224Z,101424.91
2023-01-06T08:24:44.867Z,101428.34
2023-01-06T08:25:47.941Z,101427.03
2023-01-06T08:26:51.224Z,101438.50
2023-01-06T08:27:54.497Z,101435.25
2023-01-06T08:28:57.593Z,101437.06
2023-01-06T08:30:00.686Z,101439.97
2023-01-06T08:31:04.255Z,101444.53
2023-01-06T08:32:10.894Z,101440.47
2023-01-06T08:33:14.912Z,101450.88
2023-01-06T08:34:18.193Z,101451.19
2023-01-06T08:35:21.325Z,101449.25
2023-01-06T08:36:25.366Z,101441.59
2023-01-06T08:37:29.802Z,101444.50
2023-01-06T08:38:34.859Z,101442.09
2023-01-06T08:39:38.075Z,101443.25
2023-01-06T08:40:41.221Z,101450.88
2023-01-06T08:41:44.736Z,101444.53
2023-01-06T08:42:47.958Z,101447.53
2023-01-06T08:43:51.634Z,101442.50
2023-01-06T08:44:54.802Z,101445.00
2023-01-06T08:46:03.182Z,101441.84
2023-01-06T08:47:06.454Z,101444.06
2023-01-06T08:48:09.578Z,101449.06
2023-01-06T08:49:12.698Z,101443.09
2023-01-06T08:50:16.123Z,101444.88
2023-01-06T08:51:23.732Z,101445.66
2023-01-06T08:52:26.989Z,101442.03
2023-01-06T08:53:30.125Z,101443.38
2023-01-06T08:54:33.460Z,101444.75
2023-01-06T08:55:41.619Z,101447.72
2023-01-06T08:56:44.999Z,101449.22
2023-01-06T08:57:48.385Z,101446.38
2023-01-06T08:59:03.458Z,101439.22
2023-01-06T09:00:08.006Z,101441.91
2023-01-06T09:01:23.720Z,101435.63
2023-01-06T09:02:29.286Z,101443.38
2023-01-06T09:03:32.574Z,101446.22
2023-01-06T09:04:35.810Z,101444.44
2023-01-06T09:05:39.052Z,101442.19
2023-01-06T09:06:47.303Z,101446.81
2023-01-06T09:07:54.591Z,101433.94
2023-01-06T09:08:59.280Z,101443.88
2023-01-06T09:10:02.483Z,101445.88
2023-01-06T09:11:11.008Z,101439.81
2023-01-06T09:12:15.031Z,101448.91
2023-01-06T09:13:18.824Z,101443.97
2023-01-06T09:14:22.007Z,101445.88
2023-01-06T09:15:25.077Z,101439.41
2023-01-06T09:16:28.298Z,101438.75
2023-01-06T09:17:31.811Z,101440.03
2023-01-06T09:18:35.715Z,101432.41
2023-01-06T09:19:38.880Z,101434.03
2023-01-06T09:20:42.623Z,101430.59
2023-01-06T09:21:46.254Z,101442.47
2023-01-06T09:22:49.556Z,101436.56
2023-01-06T09:23:52.715Z,101438.28
2023-01-06T09:24:55.879Z,101440.75
2023-01-06T09:25:59.492Z,101451.78
2023-01-06T09:27:02.727Z,101445.44
2023-01-06T09:28:05.912Z,101452.47
2023-01-06T09:29:09.073Z,101452.19
2023-01-06T09:30:13.329Z,101453.44
2023-01-06T09:31:18.476Z,101443.72
2023-01-06T09:32:21.719Z,101449.16
2023-01-06T09:33:26.360Z,101436.25
2023-01-06T09:34:30.278Z,101440.22
2023-01-06T09:35:34.001Z,101435.56
2023-01-06T09:36:37.108Z,101443.94
2023-01-06T09:37:40.298Z,101439.41
2023-01-06T09:38:43.456Z,101443.66
2023-01-06T09:39:46.755Z,101446.50
2023-01-06T09:41:41.052Z,101447.38
2023-01-06T09:43:09.979Z,101449.91
2023-01-06T09:44:26.977Z,101441.44
2023-01-06T09:45:45.990Z,101447.25
2023-01-06T09:46:51.645Z,101441.19
2023-01-06T09:47:59.581Z,101437.34
2023-01-06T09:49:26.707Z,101434.19
2023-01-06T09:50:41.578Z,101442.66
2023-01-06T09:51:45.483Z,101434.84
2023-01-06T09:53:01.176Z,101436.91
2023-01-06T09:54:21.595Z,101439.78
2023-01-06T09:55:48.363Z,101438.25
2023-01-06T09:57:04.267Z,101435.97
2023-01-06T09:58:18.205Z,101444.94
2023-01-06T10:00:03.168Z,101442.03
2023-01-06T10:01:13.231Z,101442.25
2023-01-06T10:02:34.177Z,101434.19
2023-01-06T10:03:37.280Z,101434.50
2023-01-06T10:04:40.307Z,101433.84
2023-01-06T10:06:25.838Z,101428.63
2023-01-06T10:08:02.203Z,101416.81
2023-01-06T10:09:40.445Z,101415.25
2023-01-06T10:10:52.215Z,101414.41
2023-01-06T10:12:01.939Z,101417.09
2023-01-06T10:13:34.371Z,101425.13
2023-01-06T10:14:58.671Z,101418.84
2023-01-06T10:16:04.321Z,101418.75
2023-01-06T10:17:34.711Z,101413.94
2023-01-06T10:19:16.941Z,101405.09
2023-01-06T10:20:50.572Z,101401.81
2023-01-06T10:22:25.102Z,101416.34
2023-01-06T10:23:51.927Z,101411.44
2023-01-06T10:25:21.797Z,101411.81
2023-01-06T10:26:32.545Z,101408.38
2023-01-06T10:27:39.524Z,101417.78
2023-01-06T10:28:54.412Z,101413.06
2023-01-06T10:30:01.123Z,101412.41
2023-01-06T10:31:11.060Z,101412.34
2023-01-06T10:32:17.570Z,101419.50
2023-01-06T10:33:28.626Z,101421.97
2023-01-06T10:34:35.877Z,101419.84
2023-01-06T10:35:39.529Z,101421.81
2023-01-06T10:36:46.956Z,101413.03
2023-01-06T10:37:52.916Z,101409.88
2023-01-06T10:38:57.965Z,101400.25
2023-01-06T10:40:15.926Z,101401.50
2023-01-06T10:41:48.681Z,101402.06
2023-01-06T10:43:11.153Z,101406.59
2023-01-06T10:44:14.749Z,101404.22
2023-01-06T10:45:17.996Z,101405.31
2023-01-06T10:46:21.289Z,101399.28
2023-01-06T10:47:31.945Z,101399.00
2023-01-06T10:48:35.842Z,101391.69
2023-01-06T10:49:39.173Z,101397.66
2023-01-06T10:50:42.873Z,101387.38
2023-01-06T10:52:03.451Z,101390.22
2023-01-06T10:53:06.535Z,101400.19
2023-01-06T10:54:15.205Z,101392.00
2023-01-06T10:55:39.942Z,101392.59
2023-01-06T10:57:02.739Z,101387.53
2023-01-06T10:58:35.724Z,101389.25
2023-01-06T11:00:17.830Z,101389.91
2023-01-06T11:01:33.932Z,101390.22
2023-01-06T11:02:52.804Z,101384.59
2023-01-06T11:04:13.625Z,101386.75
2023-01-06T11:05:24.506Z,101385.00
2023-01-06T11:06:29.333Z,101382.00
2023-01-06T11:07:33.371Z,101383.47
2023-01-06T11:08:38.896Z,101378.16
2023-01-06T11:09:45.270Z,101374.69
2023-01-06T11:10:52.079Z,101379.06
2023-01-06T11:11:59.315Z,101360.00
2023-01-06T11:13:04.159Z,101371.00
2023-01-06T11:14:15.609Z,101366.69
2023-01-06T11:15:25.226Z,101375.09
2023-01-06T11:16:32.368Z,101362.97
2023-01-06T11:17:36.245Z,101365.03
2023-01-06T11:18:40.353Z,101366.28
2023-01-06T11:19:46.324Z,101366.28
2023-01-06T11:21:21.710Z,101366.28
2023-01-06T11:22:39.167Z,101366.28
2023-01-06T11:23:46.553Z,54902.94
2023-01-06T11:24:54.454Z,54902.94
2023-01-06T11:26:12.530Z,54902.94
2023-01-06T11:27:17.380Z,54902.94
2023-01-06T11:28:21.572Z,54902.94
2023-01-06T11:29:45.067Z,54902.94
2023-01-06T11:30:55.615Z,54902.94
2023-01-06T11:32:13.360Z,54902.94
2023-01-06T11:33:21.609Z,54902.94
2023-01-06T11:34:29.149Z,54902.94
2023-01-06T11:35:33.641Z,54902.94
2023-01-06T11:36:46.237Z,54902.94
2023-01-06T11:37:49.504Z,54902.94
2023-01-06T11:39:12.707Z,54902.94
2023-01-06T11:40:33.876Z,54902.94
2023-01-06T11:41:40.969Z,54902.94
2023-01-06T11:42:47.846Z,54902.94
2023-01-06T11:43:53.032Z,54902.94
2023-01-06T11:44:56.452Z,54902.94
2023-01-06T11:46:07.965Z,54902.94
2023-01-06T11:47:23.559Z,54902.94
2023-01-06T11:48:53.007Z,54902.94
2023-01-06T11:50:01.135Z,54902.94
2023-01-06T11:51:08.930Z,54902.94
2023-01-06T11:52:31.327Z,54902.94
2023-01-06T11:53:34.972Z,54902.94
2023-01-06T11:54:40.192Z,54902.94
2023-01-06T11:56:15.704Z,54902.94
2023-01-06T11:58:12.568Z,54902.94
2023-01-06T11:59:16.191Z,54902.94
2023-01-06T12:00:38.473Z,54902.94
2023-01-06T12:02:02.654Z,54902.94
2023-01-06T12:03:17.194Z,54902.94
2023-01-06T12:04:58.311Z,54902.94
2023-01-06T12:06:04.265Z,54902.94
2023-01-06T12:07:41.509Z,54902.94
2023-01-06T12:09:09.468Z,54902.94
2023-01-06T12:10:26.591Z,54902.94
2023-01-06T12:11:50.914Z,54902.94
2023-01-06T12:12:54.312Z,54902.94
2023-01-06T12:14:11.060Z,54902.94
2023-01-06T12:15:22.487Z,54902.94
2023-01-06T12:16:48.022Z,54902.94
2023-01-06T12:18:23.269Z,54902.94
2023-01-06T12:19:53.870Z,54902.94
2023-01-06T12:21:00.274Z,54902.94
2023-01-06T12:22:05.552Z,54902.94
2023-01-06T12:23:28.607Z,54902.94
2023-01-06T12:24:33.484Z,54902.94
2023-01-06T12:25:46.800Z,54902.94
2023-01-06T12:26:50.487Z,54902.94
2023-01-06T12:28:19.539Z,54902.94
2023-01-06T12:29:23.245Z,54902.94
2023-01-06T12:30:47.733Z,54902.94
2023-01-06T12:32:18.596Z,54902.94
2023-01-06T12:33:58.746Z,54902.94
2023-01-06T12:35:03.005Z,54902.94
2023-01-06T12:36:18.998Z,54902.94
2023-01-06T12:37:33.080Z,54902.94
2023-01-06T12:38:50.083Z,54902.94
2023-01-06T12:40:17.375Z,54902.94
2023-01-06T12:41:34.751Z,54902.94
2023-01-06T12:42:53.115Z,54902.94
2023-01-06T12:44:42.078Z,54902.94
2023-01-06T12:46:18.284Z,54902.94
2023-01-06T12:47:39.492Z,54902.94
2023-01-06T12:48:50.322Z,54902.94
2023-01-06T12:49:56.190Z,54902.94
2023-01-06T12:51:39.721Z,54902.94
2023-01-06T12:52:52.837Z,54902.94
2023-01-06T12:54:14.429Z,54902.94
2023-01-06T12:55:29.101Z,54902.94
2023-01-06T12:57:31.840Z,54902.94
2023-01-06T12:59:05.525Z,54902.94
2023-01-06T13:00:26.311Z,54902.94
2023-01-06T13:01:51.783Z,54902.94
2023-01-06T13:03:34.904Z,54902.94
2023-01-06T13:05:13.488Z,54902.94
2023-01-06T13:07:04.388Z,54902.94
2023-01-06T13:08:44.357Z,54902.94
2023-01-06T13:10:07.547Z,54902.94
2023-01-06T13:11:37.846Z,54902.94
2023-01-06T13:13:00.311Z,54902.94
2023-01-06T13:14:30.104Z,54902.94
2023-01-06T13:15:38.770Z,54902.94
2023-01-06T13:17:06.505Z,54902.94
2023-01-06T13:18:17.008Z,54902.94